Slayden, Tennessee
Current Conditions -  °F | °C
As of 11:52 PM on Sunday 21 Dec 2014 (Local Time) from KCKV Reporting Station
Clear Clear  
Wind Chill: 38°   Ceiling: Unl
Heat Index: 38°   Visibility: 10mi
Dew Point: 31°   Wind: 3mph
Humidity: 76%   Direction: 120°ESE
Pressure: 29.98"   Gusts: NA
Location:  36.29°N, 87.47°W
Report Text: KCKV 220552Z AUTO 12003KT 10SM CLR 03/M01 A2998 RMK AO2 SLP153 T00331006 10061 20028 401061056 58017
Loading
Personal Weather Stations






























Interactive Weather Map New forecast layout! Learn more

10-Day Weather Forecast

Advertisements
Track Severe Weather on mobile